Time;durP1;ratioP1;P1;durP2;ratioP2;P2;SDS_P1;SDS_P2;PMS_P1;PMS_P2;Temp;Humidity;BMP_temperature;BMP_pressure;BME280_temperature;BME280_humidity;BME280_pressure;Samples;Min_cycle;Max_cycle;Signal;HPM_P1;HPM_P2
2021/10/15 00:00:18;;;;;;;5.10;4.80;;;10.60;63.80;;;;;;4995261;28;20035;-88
2021/10/15 00:02:44;;;;;;;4.97;4.68;;;10.60;63.80;;;;;;4993611;28;20039;-88
2021/10/15 00:05:10;;;;;;;6.00;5.35;;;10.50;63.80;;;;;;4989326;28;20023;-87
2021/10/15 00:07:36;;;;;;;5.53;5.15;;;10.50;63.70;;;;;;5006840;28;20035;-88
2021/10/15 00:10:06;;;;;;;7.63;5.53;;;10.50;63.70;;;;;;4994252;28;20041;-87
2021/10/15 00:12:33;;;;;;;17.75;5.07;;;10.50;63.80;;;;;;4993793;28;20038;-88
2021/10/15 00:14:59;;;;;;;5.57;5.15;;;10.40;63.90;;;;;;4997126;28;20049;-87
2021/10/15 00:17:25;;;;;;;5.80;5.30;;;10.40;64.80;;;;;;4998480;28;20515;-87
2021/10/15 00:19:51;;;;;;;5.40;4.70;;;10.40;64.00;;;;;;4996680;28;20034;-87
2021/10/15 00:22:17;;;;;;;5.10;4.78;;;10.40;64.10;;;;;;5004849;28;20523;-87
2021/10/15 00:24:44;;;;;;;5.05;4.80;;;10.40;64.00;;;;;;4995369;28;20030;-88
2021/10/15 00:27:10;;;;;;;4.93;4.63;;;10.40;64.10;;;;;;4994180;28;20038;-88
2021/10/15 00:29:37;;;;;;;5.53;5.20;;;10.40;64.20;;;;;;4993609;28;20041;-87
2021/10/15 00:32:05;;;;;;;5.28;4.97;;;10.30;64.20;;;;;;5002903;28;20046;-87
2021/10/15 00:34:31;;;;;;;4.88;4.50;;;10.40;64.30;;;;;;4990561;28;20372;-87
2021/10/15 00:36:57;;;;;;;5.45;4.93;;;10.30;64.20;;;;;;4994161;28;20045;-88
2021/10/15 00:39:23;;;;;;;4.65;4.43;;;10.30;64.30;;;;;;5010669;28;20483;-85
2021/10/15 00:41:49;;;;;;;4.65;4.43;;;10.30;64.30;;;;;;4995166;28;20038;-87
2021/10/15 00:44:16;;;;;;;4.93;4.72;;;10.30;64.40;;;;;;4993382;28;20513;-88
2021/10/15 00:46:42;;;;;;;5.18;4.88;;;10.30;64.40;;;;;;5009106;28;20038;-87
2021/10/15 00:49:11;;;;;;;4.50;4.30;;;10.30;64.40;;;;;;4994749;28;20491;-87
2021/10/15 00:51:37;;;;;;;4.90;4.60;;;10.30;64.50;;;;;;4995767;28;20041;-87
2021/10/15 00:54:04;;;;;;;5.45;5.03;;;10.20;64.40;;;;;;5028257;28;20039;-85
2021/10/15 00:56:30;;;;;;;4.85;4.55;;;10.20;64.50;;;;;;4998284;28;20483;-87
2021/10/15 00:58:58;;;;;;;5.60;5.20;;;10.20;64.60;;;;;;4988329;28;20050;-87
2021/10/15 01:01:24;;;;;;;4.78;4.57;;;10.20;64.60;;;;;;5008433;28;20027;-87
2021/10/15 01:03:50;;;;;;;4.88;4.63;;;10.20;64.60;;;;;;4998628;28;20392;-88
2021/10/15 01:06:16;;;;;;;5.40;5.00;;;10.20;64.60;;;;;;5002156;28;20030;-87
2021/10/15 01:08:46;;;;;;;4.82;4.63;;;10.20;64.70;;;;;;5002324;28;20127;-88
2021/10/15 01:11:14;;;;;;;6.53;4.80;;;10.20;64.70;;;;;;5005570;28;20033;-86
2021/10/15 01:13:40;;;;;;;5.07;4.80;;;10.20;64.80;;;;;;4993771;28;20046;-87
2021/10/15 01:16:08;;;;;;;5.25;4.78;;;10.20;64.80;;;;;;4995094;28;20046;-87
2021/10/15 01:18:34;;;;;;;4.60;4.40;;;10.20;64.80;;;;;;4997926;28;20034;-87
2021/10/15 01:21:01;;;;;;;4.50;4.30;;;10.20;64.80;;;;;;4995279;28;20031;-87
2021/10/15 01:23:27;;;;;;;5.25;4.80;;;10.10;64.80;;;;;;4995209;28;20497;-87
2021/10/15 01:25:53;;;;;;;5.47;5.07;;;10.20;64.80;;;;;;5008283;28;20109;-87
2021/10/15 01:28:23;;;;;;;5.07;4.75;;;10.10;64.80;;;;;;4992550;28;20046;-87
2021/10/15 01:30:49;;;;;;;12.88;5.15;;;10.10;64.90;;;;;;5025149;28;20034;-87
2021/10/15 01:33:15;;;;;;;4.90;4.60;;;10.10;64.90;;;;;;5001896;28;20038;-87
2021/10/15 01:35:42;;;;;;;4.43;4.15;;;10.10;64.90;;;;;;5001531;28;20061;-87
2021/10/15 01:38:08;;;;;;;5.47;5.18;;;10.10;65.00;;;;;;5000092;28;20043;-87
2021/10/15 01:40:34;;;;;;;5.13;4.80;;;10.10;65.00;;;;;;5007900;28;20034;-87
2021/10/15 01:43:00;;;;;;;5.47;5.07;;;10.10;65.00;;;;;;4995940;28;20049;-87
2021/10/15 01:45:28;;;;;;;5.07;4.78;;;10.10;65.10;;;;;;4980310;28;20038;-87
2021/10/15 01:47:54;;;;;;;4.38;4.18;;;10.10;65.20;;;;;;4998471;28;20041;-87
2021/10/15 01:50:21;;;;;;;4.70;4.40;;;10.00;65.10;;;;;;4987330;28;20042;-87
2021/10/15 01:52:47;;;;;;;5.18;4.93;;;10.00;65.20;;;;;;4995136;28;20026;-87
2021/10/15 01:55:14;;;;;;;4.97;4.68;;;10.00;65.30;;;;;;4976341;28;20069;-87
2021/10/15 01:57:40;;;;;;;4.82;4.57;;;10.00;65.40;;;;;;5014281;28;20042;-87
2021/10/15 02:00:07;;;;;;;5.55;5.10;;;9.90;65.40;;;;;;4996246;28;20053;-87
2021/10/15 02:02:34;;;;;;;8.40;4.78;;;9.90;65.40;;;;;;4987203;28;20027;-87
2021/10/15 02:05:00;;;;;;;5.40;5.10;;;9.90;65.50;;;;;;4987065;28;20026;-87
2021/10/15 02:07:26;;;;;;;5.00;4.70;;;9.90;65.50;;;;;;4986280;28;20022;-87
2021/10/15 02:09:52;;;;;;;4.53;4.32;;;9.90;65.50;;;;;;4992505;28;20022;-87
2021/10/15 02:12:18;;;;;;;4.18;3.97;;;9.90;65.50;;;;;;4979833;28;20050;-87
2021/10/15 02:14:44;;;;;;;4.85;4.53;;;9.80;65.50;;;;;;5018667;28;20042;-86
2021/10/15 02:17:10;;;;;;;4.78;4.47;;;9.80;65.50;;;;;;4990321;28;20061;-86
2021/10/15 02:19:36;;;;;;;4.75;4.53;;;9.80;65.60;;;;;;4992104;28;20054;-88
2021/10/15 02:22:03;;;;;;;4.85;4.55;;;9.80;65.60;;;;;;4992203;28;20391;-86
2021/10/15 02:24:29;;;;;;;5.43;4.93;;;9.80;65.70;;;;;;5023962;28;20396;-86
2021/10/15 02:26:55;;;;;;;4.60;4.40;;;9.80;65.70;;;;;;4986448;28;20092;-87
2021/10/15 02:29:21;;;;;;;5.03;4.72;;;9.80;65.80;;;;;;4988147;28;20491;-86
2021/10/15 02:31:47;;;;;;;4.43;4.22;;;9.80;65.80;;;;;;5010727;28;20439;-86
2021/10/15 02:34:15;;;;;;;4.82;4.53;;;9.80;65.80;;;;;;5007396;28;20417;-88
2021/10/15 02:36:41;;;;;;;4.60;4.35;;;9.70;65.80;;;;;;4991521;28;20042;-87
2021/10/15 02:39:07;;;;;;;4.68;4.47;;;9.70;65.80;;;;;;5026579;28;20403;-87
2021/10/15 02:41:37;;;;;;;4.47;4.20;;;9.70;65.80;;;;;;4996446;28;20037;-87
2021/10/15 02:44:07;;;;;;;7.15;4.75;;;9.70;65.90;;;;;;4987528;28;20026;-87
2021/10/15 02:46:33;;;;;;;4.88;4.55;;;9.70;66.00;;;;;;5004552;28;20420;-87
2021/10/15 02:48:59;;;;;;;4.68;4.38;;;9.60;65.90;;;;;;4995050;28;20038;-87
2021/10/15 02:51:25;;;;;;;5.45;5.15;;;9.60;66.00;;;;;;4995921;28;20037;-86
2021/10/15 02:53:51;;;;;;;5.43;5.10;;;9.60;66.10;;;;;;4996922;28;20380;-86
2021/10/15 02:56:18;;;;;;;4.60;4.35;;;9.60;66.10;;;;;;4999924;28;20026;-86
2021/10/15 02:58:44;;;;;;;3.95;3.75;;;9.60;66.10;;;;;;5007085;28;20050;-85
2021/10/15 03:01:10;;;;;;;4.70;4.50;;;9.60;66.10;;;;;;4992850;28;20506;-87
2021/10/15 03:03:36;;;;;;;4.88;4.57;;;9.50;66.10;;;;;;5029562;28;20034;-86
2021/10/15 03:06:02;;;;;;;4.50;4.30;;;9.60;66.20;;;;;;4995796;28;20045;-87
2021/10/15 03:08:28;;;;;;;4.63;4.38;;;9.50;66.20;;;;;;4994739;28;20042;-86
2021/10/15 03:10:54;;;;;;;4.72;4.53;;;9.50;66.20;;;;;;4995891;28;20048;-86
2021/10/15 03:13:21;;;;;;;4.05;3.85;;;9.50;66.20;;;;;;5006655;28;20472;-87
2021/10/15 03:15:47;;;;;;;5.05;4.63;;;9.60;66.30;;;;;;4997227;28;20034;-86
2021/10/15 03:18:13;;;;;;;5.50;5.05;;;9.60;66.30;;;;;;4995868;28;20045;-86
2021/10/15 03:20:39;;;;;;;4.80;4.55;;;9.60;66.30;;;;;;4994825;28;20029;-86
2021/10/15 03:23:05;;;;;;;5.00;4.68;;;9.50;66.20;;;;;;5005627;28;20029;-87
2021/10/15 03:25:32;;;;;;;4.43;4.22;;;9.50;66.30;;;;;;4991781;28;20037;-87
2021/10/15 03:27:58;;;;;;;4.80;4.60;;;9.50;66.30;;;;;;4978440;28;20038;-86
2021/10/15 03:30:24;;;;;;;4.45;4.25;;;9.50;66.40;;;;;;4995799;28;20038;-87
2021/10/15 03:32:50;;;;;;;4.32;4.13;;;9.50;66.40;;;;;;4975692;28;20513;-89
2021/10/15 03:35:16;;;;;;;4.90;4.70;;;9.50;66.40;;;;;;5004027;28;20058;-88
2021/10/15 03:37:42;;;;;;;5.22;4.82;;;9.50;66.40;;;;;;4991294;28;20507;-89
2021/10/15 03:40:09;;;;;;;4.68;4.38;;;9.50;66.40;;;;;;4991842;28;20034;-88
2021/10/15 03:42:35;;;;;;;4.70;4.45;;;9.50;66.40;;;;;;5029415;28;20471;-88
2021/10/15 03:45:01;;;;;;;4.93;4.63;;;9.50;66.40;;;;;;4995681;28;20038;-88
2021/10/15 03:47:27;;;;;;;4.53;4.32;;;9.50;66.40;;;;;;4995139;28;20407;-87
2021/10/15 03:49:53;;;;;;;8.15;4.65;;;9.50;66.50;;;;;;4994132;28;20045;-88
2021/10/15 03:52:19;;;;;;;4.78;4.47;;;9.50;66.50;;;;;;4973893;28;20053;-88
2021/10/15 03:54:45;;;;;;;4.20;4.00;;;9.50;66.60;;;;;;4996953;28;20034;-88
2021/10/15 03:57:11;;;;;;;5.15;4.85;;;9.50;66.60;;;;;;4976911;28;20039;-89
2021/10/15 03:59:37;;;;;;;4.70;4.50;;;9.40;66.60;;;;;;4994292;28;20041;-88
2021/10/15 04:02:04;;;;;;;7.25;6.60;;;9.40;66.60;;;;;;4987273;28;20030;-85
2021/10/15 04:04:30;;;;;;;4.72;4.43;;;9.40;66.70;;;;;;4992624;28;20395;-88
2021/10/15 04:06:56;;;;;;;5.80;5.25;;;9.40;66.70;;;;;;4995860;28;20037;-88
2021/10/15 04:09:22;;;;;;;4.57;4.38;;;9.40;66.70;;;;;;5010769;28;20037;-88
2021/10/15 04:11:48;;;;;;;4.35;4.15;;;9.40;66.70;;;;;;4963479;28;20043;-87
2021/10/15 04:14:15;;;;;;;4.15;3.95;;;9.40;66.70;;;;;;4995615;28;20022;-88
2021/10/15 04:16:41;;;;;;;4.72;4.43;;;9.40;66.80;;;;;;4990477;28;20034;-88
2021/10/15 04:19:07;;;;;;;4.45;4.25;;;9.40;66.80;;;;;;4996195;28;20030;-87
2021/10/15 04:21:33;;;;;;;4.43;4.13;;;9.40;66.80;;;;;;4997839;28;20030;-88
2021/10/15 04:23:59;;;;;;;4.47;4.18;;;9.40;66.80;;;;;;4998953;28;20034;-87
2021/10/15 04:26:25;;;;;;;4.50;4.30;;;9.40;66.80;;;;;;4997486;28;20026;-88
2021/10/15 04:28:51;;;;;;;4.35;4.15;;;9.40;66.80;;;;;;4998319;28;20057;-87
2021/10/15 04:31:18;;;;;;;4.40;4.20;;;9.30;66.90;;;;;;4977612;28;20026;-88
2021/10/15 04:33:44;;;;;;;5.80;5.40;;;9.30;66.90;;;;;;5015786;28;20026;-88
2021/10/15 04:36:10;;;;;;;4.40;4.20;;;9.30;66.90;;;;;;4998618;28;20050;-88
2021/10/15 04:38:36;;;;;;;5.10;4.80;;;9.30;66.90;;;;;;4997040;28;20042;-88
2021/10/15 04:41:02;;;;;;;4.70;4.43;;;9.30;67.00;;;;;;4991508;28;20038;-87
2021/10/15 04:43:28;;;;;;;4.70;4.50;;;9.30;67.10;;;;;;4978290;28;20368;-87
2021/10/15 04:45:54;;;;;;;4.88;4.57;;;9.30;67.10;;;;;;4977915;28;20039;-87
2021/10/15 04:48:20;;;;;;;3.78;3.58;;;9.30;67.10;;;;;;4978018;28;20042;-87
2021/10/15 04:50:46;;;;;;;4.00;3.80;;;9.30;67.10;;;;;;4978168;28;20039;-86
2021/10/15 04:53:12;;;;;;;4.97;4.53;;;9.30;67.10;;;;;;4992520;28;20034;-88
2021/10/15 04:55:39;;;;;;;4.45;4.25;;;9.30;67.20;;;;;;4974882;28;20039;-87
2021/10/15 04:58:05;;;;;;;4.43;4.18;;;9.30;67.20;;;;;;4990095;28;20031;-88
2021/10/15 05:00:32;;;;;;;4.18;3.97;;;9.20;67.10;;;;;;4983922;28;20034;-88
2021/10/15 05:02:58;;;;;;;4.82;4.47;;;9.30;67.30;;;;;;4999810;28;20045;-87
2021/10/15 05:05:26;;;;;;;4.90;4.60;;;9.20;67.20;;;;;;5004161;28;20030;-86
2021/10/15 05:07:56;;;;;;;4.55;4.15;;;9.20;67.20;;;;;;4996341;28;20041;-88
2021/10/15 05:10:23;;;;;;;4.35;4.15;;;9.20;67.30;;;;;;4976168;28;20041;-88
2021/10/15 05:12:52;;;;;;;4.43;4.22;;;9.20;67.30;;;;;;4998781;28;20026;-88
2021/10/15 05:15:19;;;;;;;7.47;5.15;;;9.10;67.30;;;;;;4995376;28;20038;-88
2021/10/15 05:17:45;;;;;;;4.20;4.00;;;9.10;67.40;;;;;;4997756;28;20026;-88
2021/10/15 05:20:14;;;;;;;4.70;4.40;;;9.10;67.40;;;;;;5000877;28;20399;-88
2021/10/15 05:22:40;;;;;;;4.18;3.97;;;9.10;67.40;;;;;;5006204;28;20039;-88
2021/10/15 05:25:07;;;;;;;4.78;4.45;;;9.10;67.40;;;;;;4994996;28;20054;-88
2021/10/15 05:27:33;;;;;;;4.15;3.95;;;9.10;67.40;;;;;;4980010;28;20098;-88
2021/10/15 05:29:59;;;;;;;4.25;4.05;;;9.10;67.40;;;;;;4997889;28;20042;-88
2021/10/15 05:32:25;;;;;;;4.43;4.18;;;9.10;67.50;;;;;;4994379;28;20046;-87
2021/10/15 05:34:51;;;;;;;4.57;4.38;;;9.10;67.50;;;;;;5007475;28;20034;-87
2021/10/15 05:37:17;;;;;;;5.45;5.05;;;9.10;67.60;;;;;;4993819;28;20491;-87
2021/10/15 05:39:44;;;;;;;4.63;4.43;;;9.00;67.50;;;;;;4999337;28;20427;-88
2021/10/15 05:42:10;;;;;;;4.13;3.92;;;9.00;67.60;;;;;;5000205;28;20042;-88
2021/10/15 05:44:36;;;;;;;4.30;4.10;;;9.00;67.70;;;;;;5001273;28;20045;-88
2021/10/15 05:47:05;;;;;;;4.43;4.22;;;9.00;67.70;;;;;;4995700;28;20030;-88
2021/10/15 05:49:32;;;;;;;5.38;4.97;;;9.00;67.70;;;;;;4991563;28;20038;-87
2021/10/15 05:52:26;;;;;;;4.57;4.38;;;9.00;67.80;;;;;;4996283;28;20019;-87
2021/10/15 06:00:12;;;;;;;4.88;4.57;;;8.90;67.90;;;;;;4940405;28;20079;-88
2021/10/15 06:02:44;;;;;;;5.20;4.90;;;8.80;67.80;;;;;;4937083;29;20027;-87
2021/10/15 06:16:04;;;;;;;4.30;4.10;;;8.80;67.90;;;;;;4847849;29;20495;-86
2021/10/15 06:18:38;;;;;;;5.18;4.88;;;8.70;67.90;;;;;;4854982;29;20038;-87
2021/10/15 06:21:04;;;;;;;5.70;4.75;;;8.70;67.90;;;;;;4848617;29;20518;-87
2021/10/15 06:23:30;;;;;;;4.63;4.32;;;8.70;68.00;;;;;;4824152;29;20046;-87
2021/10/15 06:25:57;;;;;;;4.95;4.65;;;8.70;68.00;;;;;;4854356;29;20053;-87
2021/10/15 06:28:23;;;;;;;7.72;5.53;;;8.70;68.00;;;;;;4828024;29;20042;-87
2021/10/15 06:30:49;;;;;;;5.78;5.38;;;8.70;68.00;;;;;;4854470;29;20045;-87
2021/10/15 06:33:15;;;;;;;4.40;4.10;;;8.70;68.00;;;;;;4846431;29;20050;-87
2021/10/15 06:35:42;;;;;;;4.43;4.22;;;8.70;68.00;;;;;;4838399;29;20057;-88
2021/10/15 06:38:08;;;;;;;4.88;4.57;;;8.70;68.10;;;;;;4840596;29;20108;-87
2021/10/15 06:40:34;;;;;;;5.18;4.78;;;8.70;68.00;;;;;;4872198;29;20065;-87
2021/10/15 06:43:00;;;;;;;5.50;4.70;;;8.70;68.00;;;;;;4860946;29;20041;-87
2021/10/15 06:45:27;;;;;;;5.25;4.95;;;8.80;68.00;;;;;;4846888;29;20033;-87
2021/10/15 06:47:53;;;;;;;4.38;4.18;;;8.80;67.90;;;;;;4896736;29;20051;-87
2021/10/15 06:50:19;;;;;;;4.80;4.50;;;8.80;67.90;;;;;;4956284;28;20031;-87
2021/10/15 06:52:48;;;;;;;5.28;4.88;;;8.90;67.80;;;;;;4967927;28;20072;-86
2021/10/15 06:55:15;;;;;;;5.13;4.72;;;8.90;67.80;;;;;;4992958;28;20049;-87
2021/10/15 06:57:41;;;;;;;4.97;4.68;;;8.90;67.70;;;;;;4993596;28;20046;-87
2021/10/15 07:00:08;;;;;;;4.70;4.38;;;9.00;67.80;;;;;;4994244;28;20403;-88
2021/10/15 07:02:34;;;;;;;4.80;4.50;;;9.00;67.70;;;;;;4994931;28;20127;-88
2021/10/15 07:05:00;;;;;;;4.45;4.25;;;9.00;67.70;;;;;;4994484;28;20040;-88
2021/10/15 07:07:26;;;;;;;7.28;6.68;;;9.10;67.70;;;;;;4991367;28;20035;-88
2021/10/15 07:09:52;;;;;;;4.50;4.30;;;9.10;67.70;;;;;;4996215;28;20037;-88
2021/10/15 07:12:19;;;;;;;5.05;4.85;;;9.10;67.60;;;;;;4993398;28;20053;-88
2021/10/15 07:14:45;;;;;;;5.00;4.70;;;9.10;67.60;;;;;;4995585;28;20034;-87
2021/10/15 07:17:11;;;;;;;5.10;4.82;;;9.20;67.70;;;;;;4989319;28;20045;-87
2021/10/15 07:19:37;;;;;;;6.38;5.03;;;9.10;67.60;;;;;;4987285;28;20140;-87
2021/10/15 07:22:03;;;;;;;10.10;5.95;;;9.10;67.60;;;;;;4993883;28;20081;-88
2021/10/15 07:24:29;;;;;;;4.80;4.60;;;9.10;67.70;;;;;;4997029;28;20034;-88
2021/10/15 07:26:55;;;;;;;5.78;5.28;;;9.10;67.80;;;;;;4996986;28;20078;-88
2021/10/15 07:29:21;;;;;;;11.43;5.40;;;9.10;67.90;;;;;;5000014;28;20475;-88
2021/10/15 07:31:47;;;;;;;6.78;6.15;;;9.10;68.00;;;;;;5003738;28;20050;-88
2021/10/15 07:34:14;;;;;;;5.00;4.70;;;9.10;68.00;;;;;;4992278;28;20483;-87
2021/10/15 07:36:40;;;;;;;4.40;4.20;;;9.10;68.00;;;;;;4997411;28;20046;-88
2021/10/15 07:39:06;;;;;;;4.75;4.45;;;9.10;67.90;;;;;;4998083;28;20045;-87
2021/10/15 07:41:33;;;;;;;4.93;4.63;;;9.30;67.80;;;;;;4984472;28;20073;-88
2021/10/15 07:43:59;;;;;;;5.78;5.28;;;9.60;67.30;;;;;;4994581;28;20022;-88
2021/10/15 07:46:25;;;;;;;7.13;6.18;;;9.90;66.70;;;;;;4988434;28;20395;-88
2021/10/15 07:48:51;;;;;;;8.40;6.00;;;10.20;66.20;;;;;;4996155;28;20042;-88
2021/10/15 07:51:17;;;;;;;5.28;4.93;;;10.40;65.70;;;;;;4996118;28;20431;-88
2021/10/15 07:53:43;;;;;;;5.50;5.05;;;10.70;65.30;;;;;;4999919;28;20034;-88
2021/10/15 07:56:09;;;;;;;3.85;3.65;;;11.30;64.60;;;;;;4993141;28;20022;-88
2021/10/15 07:58:35;;;;;;;4.43;4.20;;;11.90;63.40;;;;;;5005428;28;20034;-89
2021/10/15 08:01:01;;;;;;;5.55;5.22;;;12.50;62.20;;;;;;5009057;28;20046;-89
2021/10/15 08:03:27;;;;;;;5.00;4.65;;;13.00;61.40;;;;;;4999515;28;20029;-90
2021/10/15 08:05:54;;;;;;;6.35;5.95;;;13.40;60.70;;;;;;5000676;28;20064;-89
2021/10/15 08:08:20;;;;;;;6.80;6.40;;;13.60;60.40;;;;;;5004032;28;20030;-88
2021/10/15 08:10:46;;;;;;;5.40;5.10;;;13.60;60.50;;;;;;4992649;28;20038;-90
2021/10/15 08:13:13;;;;;;;6.45;6.05;;;13.90;60.70;;;;;;4996677;28;20030;-90
2021/10/15 08:15:39;;;;;;;6.70;6.20;;;14.20;60.40;;;;;;5000591;28;20045;-90
2021/10/15 08:18:05;;;;;;;5.80;5.47;;;14.50;60.00;;;;;;5002156;28;20026;-91
2021/10/15 08:20:31;;;;;;;6.95;6.55;;;14.80;59.60;;;;;;5004665;28;20038;-90
2021/10/15 08:22:57;;;;;;;6.95;6.45;;;14.90;59.50;;;;;;4999495;28;20022;-92
2021/10/15 08:25:27;;;;;;;6.97;6.45;;;14.90;59.50;;;;;;4977935;28;20539;-90
2021/10/15 08:27:53;;;;;;;6.28;5.82;;;15.00;59.80;;;;;;5040799;28;20037;-90
2021/10/15 08:30:19;;;;;;;6.95;6.55;;;15.00;60.00;;;;;;4981170;28;20030;-91
2021/10/15 08:32:45;;;;;;;6.45;6.15;;;15.00;60.40;;;;;;4977159;28;20043;-89
2021/10/15 08:35:12;;;;;;;6.40;6.07;;;14.90;60.80;;;;;;5020398;28;20053;-90
2021/10/15 08:37:38;;;;;;;6.03;5.72;;;14.90;61.20;;;;;;4994372;28;20034;-90
2021/10/15 08:40:05;;;;;;;7.20;6.80;;;14.80;61.40;;;;;;4997063;28;20038;-91
2021/10/15 08:42:31;;;;;;;6.95;6.55;;;14.80;61.80;;;;;;4999821;28;20503;-91
2021/10/15 08:44:57;;;;;;;6.38;5.97;;;14.90;61.70;;;;;;5000316;28;20037;-90
2021/10/15 08:47:23;;;;;;;6.75;6.40;;;15.00;61.70;;;;;;4988891;28;20034;-90
2021/10/15 08:49:49;;;;;;;7.05;6.65;;;15.00;61.60;;;;;;4988735;28;20042;-90
2021/10/15 08:52:15;;;;;;;7.22;6.82;;;15.10;61.60;;;;;;5008764;28;20038;-92
2021/10/15 08:54:43;;;;;;;6.95;6.55;;;15.30;61.50;;;;;;5016034;28;20387;-90
2021/10/15 08:57:10;;;;;;;6.50;6.10;;;15.20;61.30;;;;;;4999144;28;20037;-91
2021/10/15 08:59:41;;;;;;;7.07;6.43;;;15.20;61.50;;;;;;4997285;28;20049;-91
2021/10/15 09:02:18;;;;;;;6.53;5.95;;;15.20;61.80;;;;;;4996990;28;20034;-90
2021/10/15 09:04:51;;;;;;;6.95;6.55;;;15.00;62.00;;;;;;4993967;28;20494;-91
2021/10/15 09:07:20;;;;;;;6.35;6.05;;;14.80;62.40;;;;;;4994324;28;20030;-89
2021/10/15 09:09:46;;;;;;;6.20;5.90;;;14.70;62.90;;;;;;5031758;28;20031;-90
2021/10/15 09:12:15;;;;;;;5.93;5.63;;;14.60;63.00;;;;;;4998711;28;20379;-90
2021/10/15 09:14:41;;;;;;;7.05;6.63;;;14.60;63.20;;;;;;4997471;28;20029;-90
2021/10/15 09:17:21;;;;;;;6.65;6.20;;;14.60;63.30;;;;;;5006805;28;20364;-90
2021/10/15 09:19:50;;;;;;;6.30;5.90;;;14.70;63.30;;;;;;4995636;28;20044;-89
2021/10/15 09:22:22;;;;;;;6.43;6.10;;;14.70;63.10;;;;;;4993919;28;20022;-89
2021/10/15 09:24:56;;;;;;;6.03;5.72;;;14.90;63.00;;;;;;5031530;28;20038;-89
2021/10/15 09:27:32;;;;;;;6.22;5.82;;;15.00;62.80;;;;;;4999488;28;20053;-89
2021/10/15 09:30:08;;;;;;;7.55;6.95;;;15.10;62.90;;;;;;4999520;28;20030;-89
2021/10/15 09:32:39;;;;;;;6.65;6.15;;;15.20;62.60;;;;;;5002546;28;20041;-89
2021/10/15 09:35:06;;;;;;;6.05;5.75;;;15.30;62.40;;;;;;4978902;28;20387;-88
2021/10/15 09:37:34;;;;;;;5.90;5.60;;;15.40;62.40;;;;;;4993330;28;20038;-89
2021/10/15 09:40:07;;;;;;;6.68;6.28;;;15.30;62.40;;;;;;4997483;28;20052;-88
2021/10/15 09:42:35;;;;;;;6.70;6.35;;;15.30;62.50;;;;;;5029042;28;20483;-88
2021/10/15 09:45:15;;;;;;;6.75;6.35;;;15.20;62.60;;;;;;4997695;28;20049;-88
2021/10/15 09:47:49;;;;;;;6.00;5.70;;;15.20;62.90;;;;;;4995898;28;20038;-88
2021/10/15 09:50:19;;;;;;;7.07;6.68;;;15.20;63.00;;;;;;5006142;28;20022;-88
2021/10/15 09:52:49;;;;;;;6.53;6.13;;;15.30;62.80;;;;;;4993363;28;20025;-88
2021/10/15 09:55:19;;;;;;;6.60;6.30;;;15.30;62.70;;;;;;4997560;28;20034;-83
2021/10/15 09:57:49;;;;;;;6.10;5.80;;;15.40;62.60;;;;;;5027984;28;20034;-84
2021/10/15 10:00:31;;;;;;;6.88;6.47;;;15.50;62.50;;;;;;4980406;28;20312;-85
2021/10/15 10:02:57;;;;;;;;;;;15.60;62.40;;;;;;4987069;28;20038;-85
2021/10/15 10:05:23;;;;;;;6.60;6.15;;;15.60;62.20;;;;;;4996374;28;19910;-84
2021/10/15 10:07:50;;;;;;;6.72;6.43;;;15.70;62.00;;;;;;4997759;28;20037;-82
2021/10/15 10:10:18;;;;;;;7.45;6.28;;;15.70;61.90;;;;;;4975284;28;20042;-75
2021/10/15 10:12:45;;;;;;;6.00;5.70;;;15.70;61.90;;;;;;4998396;28;20031;-87
2021/10/15 10:15:12;;;;;;;6.53;6.22;;;15.70;61.90;;;;;;4985504;28;20026;-87
2021/10/15 10:17:46;;;;;;;7.30;6.88;;;15.80;61.80;;;;;;5025246;28;20049;-87
2021/10/15 10:20:15;;;;;;;6.40;6.10;;;15.80;61.60;;;;;;4989803;28;20449;-85
2021/10/15 10:22:46;;;;;;;6.15;5.85;;;15.80;61.60;;;;;;4991351;28;20042;-84
2021/10/15 10:25:12;;;;;;;6.85;6.38;;;15.90;61.40;;;;;;5022462;28;20498;-84
2021/10/15 10:27:38;;;;;;;5.97;5.68;;;15.90;61.20;;;;;;4984095;28;20039;-84
2021/10/15 10:30:05;;;;;;;6.32;6.00;;;15.90;61.10;;;;;;5008846;28;20042;-85
2021/10/15 10:32:31;;;;;;;6.43;6.13;;;15.90;61.00;;;;;;5025661;28;20037;-87
2021/10/15 10:34:59;;;;;;;6.13;5.82;;;15.90;61.00;;;;;;4962862;28;20034;-86
2021/10/15 10:37:25;;;;;;;6.43;6.13;;;16.00;61.00;;;;;;4991080;28;20026;-86
2021/10/15 10:40:06;;;;;;;5.97;5.68;;;16.00;60.80;;;;;;4995987;28;20034;-88
2021/10/15 10:42:32;;;;;;;6.40;6.00;;;16.10;60.50;;;;;;5039075;28;20041;-86
2021/10/15 10:44:58;;;;;;;6.80;6.50;;;16.10;60.00;;;;;;4990996;28;20030;-88
2021/10/15 10:47:25;;;;;;;8.57;6.30;;;16.20;60.00;;;;;;4993828;28;20034;-84
2021/10/15 10:50:08;;;;;;;6.53;6.22;;;16.20;60.00;;;;;;4987209;28;20026;-84
2021/10/15 10:52:47;;;;;;;6.00;5.70;;;16.20;59.80;;;;;;4990396;28;20039;-83
2021/10/15 10:55:41;;;;;;;6.20;5.90;;;16.30;59.40;;;;;;4976271;28;20034;-84
2021/10/15 10:58:36;;;;;;;6.18;5.88;;;16.30;59.30;;;;;;4989492;28;20026;-88
2021/10/15 11:01:28;;;;;;;6.32;6.03;;;16.40;59.20;;;;;;5021190;28;20050;-89
2021/10/15 11:03:57;;;;;;;6.22;5.93;;;16.40;59.10;;;;;;5001685;28;20038;-88
2021/10/15 11:06:23;;;;;;;5.88;5.57;;;16.50;59.00;;;;;;5003058;28;20053;-87
2021/10/15 11:08:51;;;;;;;6.72;6.32;;;16.50;59.00;;;;;;4998765;28;20479;-90
2021/10/15 11:11:21;;;;;;;6.43;6.13;;;16.60;59.00;;;;;;5018897;28;20030;-88
2021/10/15 11:13:47;;;;;;;7.00;6.70;;;16.60;58.80;;;;;;4988704;28;20026;-88
2021/10/15 11:16:26;;;;;;;6.22;5.93;;;16.70;58.80;;;;;;5001974;28;20041;-88
2021/10/15 11:18:53;;;;;;;6.70;6.25;;;16.70;58.80;;;;;;4987335;28;20041;-87
2021/10/15 11:21:22;;;;;;;6.65;6.35;;;16.60;58.60;;;;;;4986282;28;20050;-88
2021/10/15 11:23:48;;;;;;;8.95;7.22;;;16.50;58.60;;;;;;4990869;28;20078;-89
2021/10/15 11:26:14;;;;;;;6.18;5.88;;;16.50;58.70;;;;;;4987068;28;20029;-90
2021/10/15 11:28:40;;;;;;;6.53;6.20;;;16.60;58.70;;;;;;5009115;28;20027;-89
2021/10/15 11:31:13;;;;;;;6.38;6.07;;;16.60;58.50;;;;;;4992876;28;20042;-88
2021/10/15 11:33:39;;;;;;;6.60;6.30;;;16.60;58.30;;;;;;4995161;28;20030;-90
2021/10/15 11:36:06;;;;;;;6.55;6.25;;;16.60;58.40;;;;;;4994075;28;20061;-88
2021/10/15 11:38:33;;;;;;;6.43;6.13;;;16.50;58.40;;;;;;4992058;28;20553;-88
2021/10/15 11:41:06;;;;;;;6.53;6.22;;;16.50;58.40;;;;;;4992306;28;20049;-88
2021/10/15 11:43:34;;;;;;;6.68;6.38;;;16.50;58.30;;;;;;4991057;28;20061;-89
2021/10/15 11:46:01;;;;;;;6.80;6.40;;;16.50;58.20;;;;;;4994020;28;20046;-89
2021/10/15 11:48:29;;;;;;;6.60;6.30;;;16.60;58.20;;;;;;5027376;28;20037;-89
2021/10/15 11:50:59;;;;;;;6.25;5.95;;;16.60;58.10;;;;;;4994639;28;20033;-89
2021/10/15 11:53:40;;;;;;;6.38;6.07;;;16.70;58.00;;;;;;4972781;28;20031;-90
2021/10/15 11:56:14;;;;;;;6.57;6.28;;;16.80;57.80;;;;;;5014450;28;20041;-90
2021/10/15 11:58:44;;;;;;;6.85;6.55;;;16.90;57.50;;;;;;4975474;28;20042;-89
2021/10/15 12:01:11;;;;;;;6.47;6.18;;;17.00;57.20;;;;;;4974844;28;20046;-92
2021/10/15 12:03:47;;;;;;;6.25;5.95;;;17.10;57.10;;;;;;4996906;28;20022;-88
2021/10/15 12:06:20;;;;;;;7.32;6.93;;;17.10;57.10;;;;;;4998105;28;20395;-91
2021/10/15 12:08:47;;;;;;;7.05;6.60;;;17.20;57.00;;;;;;4998375;28;20037;-88
2021/10/15 12:11:23;;;;;;;6.55;6.25;;;17.20;57.00;;;;;;5002369;28;20026;-88
2021/10/15 12:13:49;;;;;;;6.68;6.38;;;17.30;56.90;;;;;;4992601;28;20038;-89
2021/10/15 12:16:28;;;;;;;7.30;6.90;;;17.40;56.80;;;;;;4989504;28;20042;-88
2021/10/15 12:19:07;;;;;;;7.45;7.05;;;17.40;56.70;;;;;;5019268;28;20030;-89
2021/10/15 12:21:44;;;;;;;6.90;6.60;;;17.50;56.60;;;;;;5022733;28;20055;-88
2021/10/15 12:24:26;;;;;;;7.13;6.82;;;17.50;56.50;;;;;;5010033;28;20476;-89
2021/10/15 12:27:04;;;;;;;6.95;6.65;;;17.50;56.40;;;;;;4977717;28;20042;-88
2021/10/15 12:29:30;;;;;;;7.20;6.85;;;17.40;56.00;;;;;;4997173;28;20030;-88
2021/10/15 12:32:16;;;;;;;6.80;6.50;;;17.40;56.00;;;;;;4995038;28;20531;-89
2021/10/15 12:35:12;;;;;;;6.78;6.47;;;17.30;56.20;;;;;;5005580;28;20046;-88
2021/10/15 12:37:51;;;;;;;7.10;6.80;;;17.30;56.30;;;;;;4979084;28;20034;-89
2021/10/15 12:40:29;;;;;;;7.03;6.63;;;17.30;56.30;;;;;;4994159;28;20027;-88
2021/10/15 12:42:55;;;;;;;7.25;6.95;;;17.30;56.40;;;;;;5006383;28;20049;-88
2021/10/15 12:45:26;;;;;;;7.68;7.35;;;17.20;56.40;;;;;;5014146;28;20042;-88
2021/10/15 12:48:00;;;;;;;7.38;6.97;;;17.30;56.40;;;;;;4998508;28;20044;-89
2021/10/15 12:50:27;;;;;;;6.80;6.50;;;17.30;56.20;;;;;;5002000;28;20045;-89
2021/10/15 12:52:54;;;;;;;6.68;6.38;;;17.40;56.00;;;;;;5007183;28;20030;-88
2021/10/15 12:55:21;;;;;;;7.00;6.70;;;17.40;55.90;;;;;;4993452;28;20045;-88
2021/10/15 12:57:48;;;;;;;7.00;6.70;;;17.50;55.80;;;;;;4999682;28;20031;-88
2021/10/15 13:00:23;;;;;;;6.93;6.63;;;17.50;55.60;;;;;;4994954;28;20061;-88
2021/10/15 13:03:06;;;;;;;7.13;6.82;;;17.60;55.70;;;;;;4975685;28;20042;-88
2021/10/15 13:05:32;;;;;;;6.82;6.53;;;17.60;55.60;;;;;;5022352;28;20026;-87
2021/10/15 13:07:58;;;;;;;7.00;6.57;;;17.70;55.50;;;;;;4998922;28;20030;-87
2021/10/15 13:10:25;;;;;;;7.63;7.22;;;17.80;55.40;;;;;;5007012;28;20019;-88